Time;durP1;ratioP1;P1;durP2;ratioP2;P2;SDS_P1;SDS_P2;PMS_P1;PMS_P2;Temp;Humidity;BMP_temperature;BMP_pressure;BME280_temperature;BME280_humidity;BME280_pressure;Samples;Min_cycle;Max_cycle;Signal;HPM_P1;HPM_P2
2022/01/23 00:01:08;;;;;;;14.73;10.15;;;;;;;-2.55;58.80;94620.52;1678000;85;21069;-49
2022/01/23 00:03:23;;;;;;;22.65;13.43;;;;;;;-2.61;58.82;94618.52;1673766;84;20989;-49
2022/01/23 00:05:51;;;;;;;20.48;13.00;;;;;;;-2.66;59.26;94613.47;1669664;85;21052;-49
2022/01/23 00:08:21;;;;;;;30.95;18.35;;;;;;;-2.59;59.31;94618.37;1679443;85;21922;-49
2022/01/23 00:10:47;;;;;;;24.87;14.20;;;;;;;-2.55;59.36;94608.41;1674192;84;21098;-48
2022/01/23 00:13:33;;;;;;;34.15;16.97;;;;;;;-2.51;59.37;94611.91;1666857;85;21607;-49
2022/01/23 00:18:43;;;;;;;71.33;38.17;;;;;;;-2.48;59.46;94609.06;1679003;85;21022;-49
2022/01/23 00:21:11;;;;;;;43.85;26.00;;;;;;;-2.46;59.78;94606.22;1670672;85;21247;-49
2022/01/23 00:31:37;;;;;;;41.73;20.55;;;;;;;-2.18;59.69;94611.13;1676169;85;21013;-48
2022/01/23 00:34:06;;;;;;;27.93;15.60;;;;;;;-2.14;59.74;94612.69;1631880;84;21129;-49
2022/01/23 00:36:35;;;;;;;22.32;14.95;;;;;;;-2.20;59.52;94607.45;1653226;85;20973;-49
2022/01/23 00:39:03;;;;;;;26.02;14.85;;;;;;;-2.41;60.04;94616.66;1667612;85;20976;-49
2022/01/23 00:41:30;;;;;;;25.88;16.02;;;;;;;-2.56;60.12;94614.15;1668598;85;21140;-49
2022/01/23 00:43:57;;;;;;;25.08;15.00;;;;;;;-2.61;60.36;94616.62;1677286;84;20978;-49
2022/01/23 00:46:31;;;;;;;21.27;13.90;;;;;;;-2.67;60.75;94618.06;1646009;85;21815;-49
2022/01/23 00:51:32;;;;;;;23.25;14.15;;;;;;;-2.70;61.79;94610.73;1678915;85;20974;-48
2022/01/23 00:54:02;;;;;;;22.60;14.20;;;;;;;-2.67;61.89;94603.84;1678732;84;21026;-49
2022/01/23 00:56:29;;;;;;;19.20;11.85;;;;;;;-2.55;62.07;94601.67;1682772;84;21032;-49
2022/01/23 00:58:58;;;;;;;14.40;10.53;;;;;;;-2.38;61.70;94603.80;1672099;85;21852;-51
2022/01/23 01:01:24;;;;;;;14.10;11.12;;;;;;;-2.33;61.30;94594.02;1681040;84;21049;-49
2022/01/23 01:03:51;;;;;;;23.47;13.62;;;;;;;-2.34;61.51;94596.52;1642165;85;21014;-49
2022/01/23 01:06:18;;;;;;;26.87;16.27;;;;;;;-2.27;60.69;94592.56;1671574;85;21068;-50
2022/01/23 01:08:47;;;;;;;19.67;12.90;;;;;;;-2.37;60.48;94583.80;1666162;85;21033;-48
2022/01/23 01:33:00;;;;;;;26.00;17.87;;;;;;;-2.37;59.40;94574.37;1679048;85;21069;-48
2022/01/23 01:35:22;;;;;;;17.75;11.93;;;;;;;-2.31;59.00;94572.88;1661420;85;21017;-49
2022/01/23 01:37:44;;;;;;;13.00;10.30;;;;;;;-2.27;58.73;94577.75;1669681;85;21243;-48
2022/01/23 01:40:11;;;;;;;13.28;10.25;;;;;;;-2.29;59.29;94584.64;1664410;85;21464;-50
2022/01/23 01:42:39;;;;;;;11.95;8.88;;;;;;;-2.30;59.50;94585.20;1675502;85;21054;-48
2022/01/23 01:45:06;;;;;;;25.65;15.15;;;;;;;-2.32;59.50;94579.41;1645346;85;21167;-50
2022/01/23 01:47:49;;;;;;;11.08;8.55;;;;;;;-2.20;58.25;94581.06;1659053;85;21071;-49
2022/01/23 01:50:17;;;;;;;23.32;12.78;;;;;;;-2.20;57.82;94580.50;1671131;85;21167;-48
2022/01/23 01:52:43;;;;;;;12.80;8.88;;;;;;;-2.33;58.13;94582.49;1672642;85;21174;-49
2022/01/23 01:55:16;;;;;;;12.80;10.30;;;;;;;-2.40;58.90;94587.78;1680708;85;21070;-49
2022/01/23 01:57:51;;;;;;;25.57;16.05;;;;;;;-2.47;60.19;94589.83;1671028;84;21462;-49
2022/01/23 02:01:10;;;;;;;21.25;14.68;;;;;;;-2.51;60.87;94590.37;1679394;85;21438;-48
2022/01/23 02:03:18;;;;;;;19.98;12.70;;;;;;;-2.50;61.15;94595.20;1642925;84;21130;-49
2022/01/23 02:10:52;;;;;;;52.98;21.97;;;;;;;-2.54;58.79;94580.34;1649359;85;21014;-48
2022/01/23 02:13:21;;;;;;;9.35;8.25;;;;;;;-2.48;58.67;94585.59;1675401;85;21076;-49
2022/01/23 02:54:53;;;;;;;9.27;7.20;;;;;;;-2.84;59.87;94599.02;1677602;84;21579;-48
2022/01/23 02:57:19;;;;;;;11.55;8.15;;;;;;;-2.92;58.79;94604.89;1677778;85;21277;-49
2022/01/23 02:59:40;;;;;;;11.78;9.28;;;;;;;-2.97;59.32;94611.94;1673698;85;21521;-47
2022/01/23 03:02:36;;;;;;;17.98;10.30;;;;;;;-2.94;59.69;94616.59;1669120;85;21498;-48
2022/01/23 03:05:02;;;;;;;20.32;13.62;;;;;;;-2.84;59.97;94615.92;1643102;84;21168;-49
2022/01/23 03:10:25;;;;;;;11.75;9.10;;;;;;;-2.70;59.80;94612.08;1677202;84;21063;-48
2022/01/23 03:26:53;;;;;;;18.30;11.65;;;;;;;-2.79;60.03;94581.98;1663424;85;21081;-48
2022/01/23 03:31:57;;;;;;;13.58;8.93;;;;;;;-2.72;60.38;94576.67;1667952;85;21183;-48
2022/01/23 03:34:12;;;;;;;9.93;7.15;;;;;;;-2.67;60.35;94589.80;1660352;85;21004;-48
2022/01/23 03:36:39;;;;;;;10.72;7.60;;;;;;;-2.70;60.29;94585.16;1667477;85;21206;-48
2022/01/23 03:39:07;;;;;;;10.00;7.40;;;;;;;-2.70;60.49;94585.16;1658053;85;20978;-49
2022/01/23 03:41:42;;;;;;;10.28;8.25;;;;;;;-2.59;60.82;94590.10;1672075;85;20985;-49
2022/01/23 03:44:13;;;;;;;15.05;8.95;;;;;;;-2.60;60.99;94587.77;1678709;85;21519;-49
2022/01/23 03:49:32;;;;;;;9.78;7.80;;;;;;;-2.70;62.16;94586.50;1667768;84;21201;-48
2022/01/23 03:52:08;;;;;;;11.97;7.97;;;;;;;-2.72;62.44;94584.75;1668993;85;21014;-50
2022/01/23 03:54:38;;;;;;;9.53;7.75;;;;;;;-2.80;62.90;94581.78;1676206;84;20954;-50
2022/01/23 03:57:06;;;;;;;10.70;7.55;;;;;;;-2.84;63.39;94570.77;1677177;85;21010;-47
2022/01/23 03:59:38;;;;;;;18.12;12.53;;;;;;;-2.90;63.76;94571.66;1688453;84;21025;-48
2022/01/23 04:02:06;;;;;;;17.20;11.33;;;;;;;-2.93;64.31;94576.43;1616811;88;21296;-49
2022/01/23 04:04:41;;;;;;;12.70;8.55;;;;;;;-2.85;64.72;94567.28;1612970;88;21097;-51
2022/01/23 04:07:23;;;;;;;;;;;;;;;-2.73;64.88;94568.40;1682072;85;20966;-48
2022/01/23 04:09:50;;;;;;;31.75;19.35;;;;;;;-2.60;64.69;94569.70;1672379;85;20254;-49
2022/01/23 04:12:38;;;;;;;38.55;22.37;;;;;;;-2.64;64.78;94569.45;1682241;84;21010;-50
2022/01/23 04:15:05;;;;;;;10.20;9.08;;;;;;;-2.59;65.01;94571.26;1683426;84;21134;-49
2022/01/23 04:33:51;;;;;;;10.93;9.68;;;;;;;-2.67;65.94;94569.61;1652392;85;21080;-49
2022/01/23 05:01:15;;;;;;;15.70;11.30;;;;;;;-2.51;66.14;94576.15;1677212;84;20983;-48
2022/01/23 05:04:10;;;;;;;17.48;10.68;;;;;;;-2.58;66.44;94580.88;1671395;85;21097;-48
2022/01/23 05:06:36;;;;;;;17.25;10.75;;;;;;;-2.56;66.76;94571.86;1680971;83;21430;-48
2022/01/23 05:09:00;;;;;;;17.77;11.10;;;;;;;-2.57;66.89;94568.97;1659964;85;21178;-49
2022/01/23 05:11:37;;;;;;;20.80;14.33;;;;;;;-2.48;67.22;94568.09;1642274;84;21010;-49
2022/01/23 05:14:08;;;;;;;33.15;19.37;;;;;;;-2.50;66.93;94562.30;1676279;85;20990;-48
2022/01/23 05:16:35;;;;;;;25.08;15.48;;;;;;;-2.53;67.13;94568.42;1669029;84;20986;-49
2022/01/23 05:19:02;;;;;;;20.45;12.70;;;;;;;-2.59;67.28;94576.64;1676866;84;21080;-49
2022/01/23 05:24:21;;;;;;;14.47;9.83;;;;;;;-2.51;67.42;94576.15;1663017;85;21448;-48
2022/01/23 05:26:48;;;;;;;13.15;9.63;;;;;;;-2.47;67.27;94583.09;1663325;85;21464;-48
2022/01/23 05:29:15;;;;;;;13.48;10.08;;;;;;;-2.53;67.45;94587.86;1674486;85;21030;-49
2022/01/23 05:31:42;;;;;;;18.25;10.10;;;;;;;-2.53;67.67;94587.86;1673903;84;21484;-49
2022/01/23 05:34:08;;;;;;;19.95;11.00;;;;;;;-2.55;67.66;94596.30;1670069;85;21116;-49
2022/01/23 05:36:38;;;;;;;11.48;9.08;;;;;;;-2.66;67.86;94590.00;1674600;85;20966;-49
2022/01/23 05:39:05;;;;;;;13.93;9.40;;;;;;;-2.72;68.24;94591.48;1681908;85;20981;-48
2022/01/23 05:41:32;;;;;;;17.90;11.97;;;;;;;-2.68;68.39;94597.67;1673999;84;21005;-48
2022/01/23 05:44:02;;;;;;;18.75;12.45;;;;;;;-2.64;68.59;94590.44;1676562;85;21017;-48
2022/01/23 05:46:31;;;;;;;16.23;12.15;;;;;;;-2.59;68.81;94600.88;1672906;85;21094;-50
2022/01/23 05:49:04;;;;;;;30.37;19.05;;;;;;;-2.51;68.63;94593.06;1672987;85;21299;-49
2022/01/23 05:51:36;;;;;;;28.35;18.17;;;;;;;-2.45;68.33;94603.73;1680846;84;21483;-50
2022/01/23 05:54:04;;;;;;;23.52;15.30;;;;;;;-2.46;68.08;94608.91;1639889;84;21010;-49
2022/01/23 05:56:41;;;;;;;24.35;14.50;;;;;;;-2.52;68.01;94610.95;1681531;84;20954;-49
2022/01/23 05:59:12;;;;;;;16.48;10.95;;;;;;;-2.55;67.99;94604.37;1678527;85;21154;-49
2022/01/23 06:01:44;;;;;;;10.08;8.58;;;;;;;-2.55;67.27;94613.80;1664700;85;20969;-48
2022/01/23 06:04:13;;;;;;;8.80;7.42;;;;;;;-2.53;66.78;94618.23;1670788;85;21510;-49
2022/01/23 06:06:46;;;;;;;;;;;;;;;-2.46;65.54;94622.93;1672165;84;21161;-49
2022/01/23 06:09:13;;;;;;;7.95;5.87;;;;;;;-2.52;65.40;94636.52;1674278;85;20151;-48
2022/01/23 06:11:40;;;;;;;9.85;7.53;;;;;;;-2.65;65.47;94626.55;1665927;85;21519;-49
2022/01/23 06:14:10;;;;;;;8.43;6.97;;;;;;;-2.70;65.61;94615.35;1679676;84;21096;-48
2022/01/23 06:16:39;;;;;;;16.82;10.50;;;;;;;-2.71;65.41;94626.67;1670106;84;20981;-48
2022/01/23 06:19:25;;;;;;;10.93;8.90;;;;;;;-2.63;66.02;94623.50;1676261;84;20962;-48
2022/01/23 06:22:11;;;;;;;9.60;8.23;;;;;;;-2.44;65.37;94625.47;1674551;84;21056;-49
2022/01/23 06:24:47;;;;;;;13.45;11.03;;;;;;;-2.39;64.14;94625.14;1680422;84;21226;-48
2022/01/23 06:27:28;;;;;;;13.75;11.83;;;;;;;-2.50;64.80;94626.92;1674681;84;21695;-47
2022/01/23 06:29:55;;;;;;;14.75;13.30;;;;;;;-2.55;64.90;94634.58;1642145;85;21006;-48
2022/01/23 06:32:24;;;;;;;8.10;7.33;;;;;;;-2.49;64.71;94629.81;1662499;85;20967;-49
2022/01/23 06:34:51;;;;;;;6.85;6.15;;;;;;;-2.42;63.91;94621.83;1670397;84;21012;-49
2022/01/23 06:37:21;;;;;;;7.58;6.92;;;;;;;-2.35;63.51;94634.02;1670842;85;21467;-48
2022/01/23 06:39:50;;;;;;;7.10;6.50;;;;;;;-2.30;63.14;94639.66;1680502;85;21455;-49
2022/01/23 06:42:21;;;;;;;8.18;7.33;;;;;;;-2.31;63.30;94642.91;1656617;85;21029;-48
2022/01/23 06:44:52;;;;;;;12.90;8.93;;;;;;;-2.32;64.04;94657.52;1675381;84;21078;-49
2022/01/23 06:47:19;;;;;;;61.10;35.08;;;;;;;-2.36;64.76;94655.36;1683314;84;21438;-50
2022/01/23 06:49:46;;;;;;;36.83;22.07;;;;;;;-2.36;65.54;94660.75;1671727;84;21837;-48
2022/01/23 06:52:14;;;;;;;24.45;15.90;;;;;;;-2.34;65.77;94657.70;1677433;84;20969;-48
2022/01/23 06:54:46;;;;;;;8.53;7.67;;;;;;;-2.36;66.03;94664.80;1644885;85;21125;-49
2022/01/23 06:57:13;;;;;;;12.30;8.25;;;;;;;-2.42;65.49;94659.54;1674076;85;21226;-49
2022/01/23 06:59:41;;;;;;;22.77;14.55;;;;;;;-2.49;65.77;94661.37;1671857;84;21053;-49
2022/01/23 07:02:10;;;;;;;18.17;12.30;;;;;;;-2.47;66.06;94671.95;1669402;84;21157;-50
2022/01/23 07:04:44;;;;;;;16.25;11.65;;;;;;;-2.49;65.24;94667.52;1676905;84;20959;-49
2022/01/23 07:07:34;;;;;;;8.63;7.45;;;;;;;-2.38;64.59;94668.98;1643896;85;21568;-49
2022/01/23 07:10:24;;;;;;;9.33;7.62;;;;;;;-2.23;62.57;94672.05;1673125;85;21001;-49
2022/01/23 07:13:01;;;;;;;7.97;6.17;;;;;;;-2.15;62.67;94682.54;1670314;85;21085;-50
2022/01/23 07:15:31;;;;;;;7.60;6.62;;;;;;;-2.06;61.08;94682.25;1667889;84;21226;-50
2022/01/23 07:18:02;;;;;;;11.10;9.68;;;;;;;-2.09;61.18;94674.91;1668715;85;21089;-49
2022/01/23 07:20:31;;;;;;;8.33;7.53;;;;;;;-2.17;61.37;94684.06;1678039;84;21576;-48
2022/01/23 07:23:05;;;;;;;10.32;7.62;;;;;;;-2.24;61.80;94683.97;1676209;85;20978;-49
2022/01/23 07:25:34;;;;;;;31.37;14.80;;;;;;;-2.13;62.00;94684.29;1662486;85;21030;-49
2022/01/23 07:28:05;;;;;;;33.60;15.58;;;;;;;-2.00;61.94;94689.64;1676798;85;21565;-48
2022/01/23 07:30:40;;;;;;;41.55;22.42;;;;;;;-1.94;62.15;94694.89;1675335;85;20992;-48
2022/01/23 07:33:04;;;;;;;17.83;11.57;;;;;;;-1.94;62.35;94684.11;1669081;85;20998;-48
2022/01/23 07:35:33;;;;;;;142.77;80.30;;;;;;;-1.88;62.39;94688.05;1674566;85;21066;-49
2022/01/23 07:38:00;;;;;;;12.70;10.13;;;;;;;-1.72;62.13;94706.12;1679030;84;21544;-49
2022/01/23 07:40:28;;;;;;;25.45;15.32;;;;;;;-1.69;61.42;94699.98;1641861;85;21157;-49
2022/01/23 07:42:58;;;;;;;18.25;13.48;;;;;;;-1.83;61.50;94687.70;1678281;84;20963;-48
2022/01/23 07:45:43;;;;;;;19.57;14.50;;;;;;;-1.95;61.36;94697.38;1669704;85;21070;-49
2022/01/23 07:48:22;;;;;;;12.45;10.00;;;;;;;-1.99;61.14;94700.62;1666824;85;21503;-49
2022/01/23 07:51:00;;;;;;;17.45;12.35;;;;;;;-1.97;61.37;94694.88;1667182;85;20978;-49
2022/01/23 07:53:45;;;;;;;32.60;15.78;;;;;;;-1.94;61.40;94707.02;1674426;85;21149;-48
2022/01/23 07:56:15;;;;;;;32.53;17.12;;;;;;;-1.82;61.40;94706.77;1669774;85;21384;-49
2022/01/23 07:58:52;;;;;;;16.07;11.40;;;;;;;-1.72;61.09;94704.77;1589147;88;21038;-49
2022/01/23 08:01:31;;;;;;;20.15;14.13;;;;;;;-1.67;61.16;94705.18;1650224;84;21453;-49
2022/01/23 08:04:16;;;;;;;24.67;18.55;;;;;;;-1.56;60.93;94721.46;1664299;85;21010;-49
2022/01/23 08:06:46;;;;;;;11.57;8.95;;;;;;;-1.59;59.74;94708.72;1682598;83;21808;-49
2022/01/23 08:09:31;;;;;;;10.70;8.50;;;;;;;-1.62;59.60;94705.42;1657345;85;21011;-49
2022/01/23 08:11:57;;;;;;;11.65;8.33;;;;;;;-1.69;59.13;94715.56;1651156;85;21034;-48
2022/01/23 08:14:25;;;;;;;33.35;24.52;;;;;;;-1.76;59.61;94713.37;1674794;85;21163;-50
2022/01/23 08:16:54;;;;;;;9.90;7.90;;;;;;;-1.77;59.86;94720.70;1673087;85;21007;-49
2022/01/23 08:19:22;;;;;;;18.82;13.45;;;;;;;-1.67;59.53;94733.50;1668539;84;21152;-49
2022/01/23 08:21:49;;;;;;;10.23;9.15;;;;;;;-1.57;60.06;94739.58;1659030;85;21110;-50
2022/01/23 08:24:16;;;;;;;12.00;9.00;;;;;;;-1.32;59.62;94733.08;1666690;85;21077;-49
2022/01/23 08:26:43;;;;;;;37.98;20.20;;;;;;;-1.30;59.40;94722.68;1677584;84;21019;-50
2022/01/23 08:29:10;;;;;;;11.12;9.70;;;;;;;-1.38;59.60;94749.37;1676356;85;21120;-49
2022/01/23 08:31:36;;;;;;;16.67;9.70;;;;;;;-1.40;59.62;94738.19;1674085;85;22357;-49
2022/01/23 08:34:03;;;;;;;10.00;8.73;;;;;;;-1.37;59.71;94738.79;1683242;84;20961;-49
2022/01/23 08:36:35;;;;;;;16.40;11.10;;;;;;;-1.36;59.49;94745.77;1669946;84;21083;-49
2022/01/23 08:39:03;;;;;;;14.73;10.28;;;;;;;-1.36;59.61;94753.27;1662537;85;21090;-48
2022/01/23 08:44:21;;;;;;;27.40;17.77;;;;;;;-1.52;59.84;94754.66;1684904;84;21133;-49
2022/01/23 08:46:48;;;;;;;41.55;21.10;;;;;;;-1.38;60.65;94759.61;1674145;84;21020;-49
2022/01/23 08:49:17;;;;;;;34.33;17.87;;;;;;;-1.11;60.35;94777.19;1676809;85;21452;-50
2022/01/23 08:51:45;;;;;;;19.57;12.30;;;;;;;-1.03;59.96;94763.19;1671047;84;21120;-49
2022/01/23 08:54:11;;;;;;;16.17;11.03;;;;;;;-0.95;59.31;94764.81;1641829;86;21096;-49
2022/01/23 08:56:38;;;;;;;11.15;8.95;;;;;;;-0.98;59.46;94769.61;1670381;85;22313;-49
2022/01/23 08:59:05;;;;;;;11.50;7.97;;;;;;;-1.07;59.29;94765.09;1670937;84;20962;-49
2022/01/23 09:01:35;;;;;;;14.30;9.13;;;;;;;-1.22;58.97;94779.59;1673631;85;21474;-49
2022/01/23 09:04:05;;;;;;;17.25;11.73;;;;;;;-1.32;58.95;94778.35;1671660;84;21095;-49
2022/01/23 09:06:32;;;;;;;14.50;9.50;;;;;;;-1.47;59.27;94786.68;1681988;83;21019;-49
2022/01/23 09:09:00;;;;;;;15.50;10.38;;;;;;;-1.61;59.42;94783.83;1683921;84;21151;-49
2022/01/23 09:14:10;;;;;;;32.33;18.05;;;;;;;-1.53;60.54;94781.42;1672587;85;21033;-50
2022/01/23 09:16:40;;;;;;;9.48;8.10;;;;;;;-1.45;60.74;94786.53;1681358;84;21012;-51
2022/01/23 09:19:13;;;;;;;15.78;10.75;;;;;;;-1.52;60.23;94788.37;1672603;85;20974;-48
2022/01/23 09:21:40;;;;;;;15.78;9.73;;;;;;;-1.50;60.86;94780.69;1681941;84;21148;-49
2022/01/23 09:24:09;;;;;;;15.45;9.45;;;;;;;-1.37;59.88;94793.53;1664238;85;21121;-50
2022/01/23 09:26:37;;;;;;;8.90;7.75;;;;;;;-1.39;60.06;94800.44;1688126;84;21474;-49
2022/01/23 09:29:14;;;;;;;12.28;9.90;;;;;;;-1.42;60.33;94794.44;1680180;84;20985;-49
2022/01/23 09:31:48;;;;;;;14.47;10.53;;;;;;;-1.54;60.61;94786.03;1668660;84;21635;-49
2022/01/23 09:34:09;;;;;;;13.28;9.60;;;;;;;-1.64;60.87;94789.97;1661710;85;21148;-48
2022/01/23 09:36:36;;;;;;;15.70;10.55;;;;;;;-1.64;61.43;94794.01;1644944;84;21030;-49
2022/01/23 09:39:04;;;;;;;17.12;10.72;;;;;;;-1.66;61.91;94796.30;1680137;85;20959;-50
2022/01/23 09:41:32;;;;;;;11.28;9.88;;;;;;;-1.70;62.13;94800.88;1666304;85;21557;-49
2022/01/23 09:44:00;;;;;;;19.27;11.55;;;;;;;-1.74;62.59;94804.88;1676030;84;21071;-50
2022/01/23 09:46:29;;;;;;;18.60;12.43;;;;;;;-1.68;62.82;94814.77;1656832;85;21757;-48
2022/01/23 09:48:55;;;;;;;15.08;10.98;;;;;;;-1.68;61.21;94795.89;1649051;86;20969;-51
2022/01/23 09:51:24;;;;;;;11.05;8.65;;;;;;;-1.78;59.89;94795.78;1662500;85;20980;-49
2022/01/23 09:53:55;;;;;;;11.40;9.08;;;;;;;-1.77;60.27;94798.67;1667361;85;21182;-50
2022/01/23 09:56:27;;;;;;;9.65;8.40;;;;;;;-1.68;60.48;94809.38;1666204;85;21512;-50
2022/01/23 09:58:51;;;;;;;7.67;6.22;;;;;;;-1.62;60.43;94811.94;1644700;84;21897;-49
2022/01/23 10:01:19;;;;;;;9.93;7.35;;;;;;;-1.66;60.48;94804.39;1674766;84;21466;-50
2022/01/23 10:03:45;;;;;;;8.90;8.00;;;;;;;-1.71;61.91;94812.81;1679390;84;21449;-49
2022/01/23 10:06:14;;;;;;;8.13;6.80;;;;;;;-1.70;60.50;94827.26;1678669;84;21061;-50
2022/01/23 10:08:42;;;;;;;8.93;6.87;;;;;;;-1.70;58.63;94809.73;1664690;85;20949;-50
2022/01/23 10:11:12;;;;;;;15.93;10.95;;;;;;;-1.75;58.97;94824.89;1645057;85;21213;-49
2022/01/23 10:13:40;;;;;;;9.43;8.20;;;;;;;-1.75;58.59;94821.41;1672057;85;20952;-49
2022/01/23 10:16:09;;;;;;;8.55;7.67;;;;;;;-1.70;58.94;94798.95;1656150;85;21167;-51
2022/01/23 10:18:38;;;;;;;12.47;7.78;;;;;;;-1.55;59.54;94812.01;1666763;85;21076;-50
2022/01/23 10:21:05;;;;;;;10.98;7.42;;;;;;;-1.34;59.32;94813.61;1676240;84;20981;-50
2022/01/23 10:23:33;;;;;;;15.25;11.97;;;;;;;-1.14;58.57;94821.71;1680821;84;21131;-51
2022/01/23 10:26:02;;;;;;;8.50;7.60;;;;;;;-1.13;58.15;94821.91;1679977;84;21044;-49
2022/01/23 10:28:35;;;;;;;12.95;8.95;;;;;;;-1.14;59.06;94823.06;1667596;85;21533;-50
2022/01/23 10:31:05;;;;;;;7.90;6.72;;;;;;;-1.03;58.40;94830.66;1657318;85;21041;-50
2022/01/23 10:33:36;;;;;;;12.15;9.68;;;;;;;-1.18;64.76;94838.45;1656596;84;21045;-49
2022/01/23 10:36:11;;;;;;;12.23;10.00;;;;;;;-1.30;63.76;94833.30;1674050;84;21978;-49
2022/01/23 10:38:54;;;;;;;8.90;7.78;;;;;;;-1.20;62.26;94832.05;1676263;85;21002;-49
2022/01/23 10:47:43;;;;;;;7.72;6.92;;;;;;;-0.90;57.01;94842.75;1661324;85;20975;-49
2022/01/23 10:49:58;;;;;;;11.10;8.90;;;;;;;-0.82;55.58;94838.39;1673376;85;21145;-49
2022/01/23 10:52:42;;;;;;;8.43;7.37;;;;;;;-0.86;56.19;94832.19;1672468;84;20967;-49
2022/01/23 10:55:22;;;;;;;8.75;7.47;;;;;;;-0.78;55.23;94834.38;1647885;85;21010;-50
2022/01/23 10:57:51;;;;;;;11.50;8.58;;;;;;;-0.77;55.34;94838.63;1666478;85;21032;-50
2022/01/23 11:00:38;;;;;;;9.78;8.18;;;;;;;-0.56;55.15;94850.37;1671511;85;37684;-49
2022/01/23 11:03:21;;;;;;;8.45;7.05;;;;;;;-0.49;54.30;94835.58;1677911;84;21136;-50
2022/01/23 11:05:50;;;;;;;10.80;8.45;;;;;;;-0.46;53.91;94836.74;1675151;83;21081;-49
2022/01/23 11:08:31;;;;;;;13.18;9.23;;;;;;;-0.45;53.86;94843.72;1667009;85;21132;-49
2022/01/23 11:11:04;;;;;;;20.68;12.85;;;;;;;-0.45;54.15;94846.42;1677172;84;21563;-50
2022/01/23 11:19:28;;;;;;;22.50;13.00;;;;;;;-0.11;53.65;94841.04;1664202;85;21145;-51
2022/01/23 11:21:56;;;;;;;21.48;13.38;;;;;;;-0.14;53.12;94847.20;1673946;85;21093;-51
2022/01/23 11:24:27;;;;;;;9.68;7.58;;;;;;;-0.17;53.27;94850.10;1675246;85;21470;-50
2022/01/23 11:27:02;;;;;;;11.85;6.90;;;;;;;-0.36;51.94;94852.27;1658629;85;20985;-50
2022/01/23 11:29:29;;;;;;;11.95;10.55;;;;;;;-0.64;52.61;94849.33;1645176;85;21190;-50
2022/01/23 11:31:58;;;;;;;11.22;9.05;;;;;;;-0.69;53.64;94855.09;1660632;85;20957;-50
2022/01/23 11:34:30;;;;;;;9.93;8.15;;;;;;;-0.66;53.73;94851.63;1676365;85;20978;-52
2022/01/23 11:36:59;;;;;;;15.68;10.50;;;;;;;-0.67;53.63;94852.78;1676793;84;21005;-50
2022/01/23 11:39:41;;;;;;;9.30;7.78;;;;;;;-0.62;54.44;94849.77;1677447;84;21009;-51
2022/01/23 11:56:38;;;;;;;14.13;8.88;;;;;;;-0.79;54.50;94865.23;1663100;85;21349;-50
2022/01/23 11:59:41;;;;;;;15.03;9.73;;;;;;;-0.93;53.85;94874.55;1678896;85;21167;-51
2022/01/23 12:02:20;;;;;;;16.55;11.12;;;;;;;-1.24;55.77;94881.73;1671204;85;20969;-49
2022/01/23 12:04:45;;;;;;;7.58;6.78;;;;;;;-1.23;54.83;94868.44;1664993;85;21029;-50
2022/01/23 12:07:19;;;;;;;7.47;6.30;;;;;;;-1.12;55.70;94873.39;1658288;85;21033;-49
2022/01/23 12:10:14;;;;;;;8.45;7.65;;;;;;;-0.93;54.40;94873.20;1674470;84;21101;-49
2022/01/23 12:12:46;;;;;;;8.48;7.00;;;;;;;-0.88;54.60;94878.25;1679353;85;21034;-49
2022/01/23 12:18:29;;;;;;;10.78;7.22;;;;;;;-0.73;55.05;94878.59;1666633;85;21504;-49
2022/01/23 12:20:54;;;;;;;9.05;6.58;;;;;;;-0.57;55.20;94885.88;1660014;84;21026;-49
2022/01/23 12:23:21;;;;;;;9.43;8.08;;;;;;;-0.61;54.23;94891.83;1681387;85;21501;-50
2022/01/23 12:25:52;;;;;;;19.82;12.95;;;;;;;-0.83;54.34;94884.66;1672713;84;21607;-50
2022/01/23 12:28:28;;;;;;;31.02;22.37;;;;;;;-1.00;55.36;94882.59;1662803;85;21195;-49
2022/01/23 12:31:00;;;;;;;17.37;14.38;;;;;;;-1.06;56.36;94878.65;1653322;85;21110;-49
2022/01/23 12:33:31;;;;;;;12.45;11.05;;;;;;;-0.93;56.62;94888.05;1672944;85;21007;-50
2022/01/23 12:36:02;;;;;;;10.88;8.15;;;;;;;-0.79;55.68;94896.30;1672652;85;21168;-49
2022/01/23 12:38:38;;;;;;;8.73;7.60;;;;;;;-0.82;55.49;94887.00;1667273;85;21006;-49
2022/01/23 12:41:30;;;;;;;9.13;7.97;;;;;;;-0.88;55.21;94890.41;1674213;84;21033;-49
2022/01/23 12:44:09;;;;;;;7.12;6.42;;;;;;;-0.93;55.28;94895.55;1674058;85;21033;-48
2022/01/23 12:46:39;;;;;;;12.93;8.88;;;;;;;-1.15;56.06;94878.95;1678211;84;21014;-49
2022/01/23 12:49:29;;;;;;;9.53;7.65;;;;;;;-1.23;56.79;94906.22;1618777;85;21160;-49
2022/01/23 12:52:12;;;;;;;11.48;7.37;;;;;;;-1.50;57.52;94910.91;1677078;85;20972;-49
2022/01/23 12:54:57;;;;;;;11.43;7.90;;;;;;;-1.75;58.07;94913.08;1673027;85;21462;-48
2022/01/23 12:57:38;;;;;;;9.03;7.40;;;;;;;-1.90;59.93;94922.14;1677563;84;20997;-55
2022/01/23 13:00:23;;;;;;;10.53;7.22;;;;;;;-2.03;61.41;94930.22;1667832;85;20962;-50
2022/01/23 13:02:50;;;;;;;10.60;8.70;;;;;;;-2.29;61.47;94934.81;1678751;84;21156;-49
2022/01/23 13:05:16;;;;;;;8.15;7.35;;;;;;;-2.42;62.42;94945.56;1669191;84;21021;-50
2022/01/23 13:08:50;;;;;;;9.38;7.95;;;;;;;-2.46;63.01;94950.91;1677995;85;21014;-50
2022/01/23 13:10:36;;;;;;;9.23;7.75;;;;;;;-2.46;62.89;94942.03;1660105;85;20977;-51
2022/01/23 13:32:30;;;;;;;12.58;8.60;;;;;;;-2.53;59.85;94989.81;1665492;85;21069;-49
2022/01/23 13:34:57;;;;;;;15.20;9.95;;;;;;;-2.52;58.38;94977.91;1669852;85;21591;-52
2022/01/23 13:37:28;;;;;;;16.40;11.68;;;;;;;-2.59;58.03;94975.10;1686485;84;21560;-50
2022/01/23 13:40:01;;;;;;;13.33;9.13;;;;;;;-2.63;58.50;94979.66;1673574;85;21458;-49
2022/01/23 14:00:12;;;;;;;11.48;9.08;;;;;;;-3.38;59.26;95032.34;1667579;85;20179;-49
2022/01/23 14:02:37;;;;;;;11.10;7.20;;;;;;;-3.39;57.76;95036.17;1665882;84;20989;-49
2022/01/23 14:05:15;;;;;;;10.48;8.78;;;;;;;-3.52;57.42;95010.34;1678140;84;20975;-49
2022/01/23 14:07:48;;;;;;;10.70;8.15;;;;;;;-3.66;59.06;95036.91;1685531;84;20974;-50
2022/01/23 14:10:22;;;;;;;13.98;10.28;;;;;;;-3.77;58.94;95043.94;1667948;85;21772;-49
2022/01/23 14:12:51;;;;;;;10.38;8.95;;;;;;;-3.88;59.72;95052.34;1677182;84;21537;-50
2022/01/23 14:15:24;;;;;;;9.15;7.90;;;;;;;-3.93;60.49;95040.50;1671891;84;21038;-48
2022/01/23 14:18:08;;;;;;;12.50;9.35;;;;;;;-4.00;62.42;95063.17;1673595;85;21028;-49
2022/01/23 14:20:42;;;;;;;12.30;8.90;;;;;;;-4.09;66.38;95063.34;1669892;85;20981;-48
2022/01/23 14:23:17;;;;;;;14.25;9.03;;;;;;;-4.24;69.35;95066.80;1670101;85;21053;-50
2022/01/23 14:25:49;;;;;;;11.05;8.98;;;;;;;-4.25;71.73;95071.20;1669476;84;21066;-48
2022/01/23 14:28:28;;;;;;;12.20;10.10;;;;;;;-4.21;74.32;95068.80;1673049;85;21122;-49
2022/01/23 14:30:59;;;;;;;13.50;11.48;;;;;;;-4.20;77.23;95081.67;1676879;84;20992;-50
2022/01/23 14:33:35;;;;;;;17.50;8.93;;;;;;;-4.18;76.75;95076.19;1675462;84;21077;-49
2022/01/23 14:36:23;;;;;;;27.25;15.78;;;;;;;-4.12;77.50;95068.63;1673206;84;21155;-48
2022/01/23 14:39:05;;;;;;;12.95;8.70;;;;;;;-4.14;76.88;95103.11;1684772;85;21013;-50
2022/01/23 14:41:37;;;;;;;25.97;13.65;;;;;;;-4.18;75.55;95068.67;1677265;84;21539;-50
2022/01/23 14:44:24;;;;;;;12.23;8.68;;;;;;;-4.20;74.90;95079.75;1674015;84;21018;-48
2022/01/23 14:46:56;;;;;;;18.67;13.50;;;;;;;-4.21;72.98;95077.43;1666814;84;20977;-49
2022/01/23 14:49:26;;;;;;;15.55;9.73;;;;;;;-4.28;74.78;95094.14;1675572;85;21136;-50
2022/01/23 14:51:57;;;;;;;12.25;10.15;;;;;;;-4.26;74.88;95089.77;1677643;84;21516;-50
2022/01/23 14:54:27;;;;;;;13.68;9.43;;;;;;;-4.28;73.85;95088.77;1671923;85;21067;-50
2022/01/23 14:56:53;;;;;;;18.82;11.10;;;;;;;-4.19;71.99;95092.63;1669543;85;21120;-49
2022/01/23 14:59:20;;;;;;;13.50;10.25;;;;;;;-4.12;73.86;95095.48;1677052;85;21080;-49
2022/01/23 15:01:47;;;;;;;18.30;11.18;;;;;;;-4.11;70.80;95105.89;1679169;85;21494;-49
2022/01/23 15:04:20;;;;;;;20.50;12.47;;;;;;;-4.12;73.59;95115.08;1661273;85;21564;-49
2022/01/23 15:06:46;;;;;;;15.08;9.50;;;;;;;-4.09;73.16;95124.36;1677643;84;20973;-50
2022/01/23 15:09:15;;;;;;;21.90;14.38;;;;;;;-4.11;70.32;95125.24;1671602;84;21050;-51
2022/01/23 15:11:42;;;;;;;22.20;15.00;;;;;;;-4.30;69.70;95125.13;1678856;84;21513;-49
2022/01/23 15:14:11;;;;;;;22.58;14.90;;;;;;;-4.44;69.66;95138.20;1667891;84;21154;-50
2022/01/23 15:16:40;;;;;;;13.72;10.48;;;;;;;-4.55;69.48;95142.48;1662422;85;21467;-49
2022/01/23 15:19:08;;;;;;;13.40;10.13;;;;;;;-4.62;69.94;95148.44;1639886;86;21123;-50
2022/01/23 15:21:35;;;;;;;16.12;11.63;;;;;;;-4.65;69.01;95142.42;1597878;88;21589;-50